createdAt,value
2023-02-22T00:00:01.589Z,7.20
2023-02-22T00:01:01.562Z,6.80
2023-02-22T00:02:01.630Z,6.40
2023-02-22T00:03:01.613Z,6.80
2023-02-22T00:04:01.519Z,6.80
2023-02-22T00:05:01.496Z,7.00
2023-02-22T00:06:01.505Z,6.90
2023-02-22T00:07:01.501Z,7.00
2023-02-22T00:08:01.494Z,7.40
2023-02-22T00:09:01.462Z,7.20
2023-02-22T00:10:01.436Z,7.00
2023-02-22T00:11:01.445Z,6.50
2023-02-22T00:12:01.445Z,6.50
2023-02-22T00:13:01.418Z,7.00
2023-02-22T00:14:01.417Z,6.50
2023-02-22T00:15:01.374Z,6.50
2023-02-22T00:16:02.375Z,6.60
2023-02-22T00:17:01.352Z,6.50
2023-02-22T00:18:01.353Z,6.50
2023-02-22T00:19:01.333Z,6.90
2023-02-22T00:20:01.355Z,6.80
2023-02-22T00:21:01.342Z,6.70
2023-02-22T00:22:01.307Z,6.80
2023-02-22T00:23:01.281Z,7.00
2023-02-22T00:24:01.262Z,6.50
2023-02-22T00:25:01.292Z,6.60
2023-02-22T00:26:01.273Z,6.40
2023-02-22T00:27:01.226Z,6.30
2023-02-22T00:28:01.250Z,6.60
2023-02-22T00:29:01.198Z,6.50
2023-02-22T00:30:01.171Z,6.40
2023-02-22T00:31:01.164Z,6.60
2023-02-22T00:32:01.353Z,6.70
2023-02-22T00:33:01.177Z,6.20
2023-02-22T00:34:01.166Z,7.50
2023-02-22T00:35:01.114Z,6.70
2023-02-22T00:36:01.155Z,7.10
2023-02-22T00:37:01.142Z,6.80
2023-02-22T00:38:01.126Z,6.80
2023-02-22T00:39:01.080Z,7.00
2023-02-22T00:40:01.063Z,6.80
2023-02-22T00:41:01.047Z,7.20
2023-02-22T00:42:01.048Z,7.20
2023-02-22T00:43:01.009Z,6.90
2023-02-22T00:44:01.036Z,7.20
2023-02-22T00:45:00.997Z,7.20
2023-02-22T00:46:01.089Z,7.00
2023-02-22T00:47:00.982Z,7.00
2023-02-22T00:48:00.964Z,7.00
2023-02-22T00:49:00.997Z,7.20
2023-02-22T00:50:00.954Z,7.10
2023-02-22T00:51:00.924Z,7.60
2023-02-22T00:52:00.906Z,6.60
2023-02-22T00:53:00.915Z,7.20
2023-02-22T00:54:00.897Z,7.50
2023-02-22T00:55:00.863Z,7.40
2023-02-22T00:56:00.890Z,7.20
2023-02-22T00:57:00.839Z,7.10
2023-02-22T00:58:00.826Z,7.80
2023-02-22T00:59:00.839Z,7.00
2023-02-22T01:00:00.789Z,7.50
2023-02-22T01:01:00.822Z,7.30
2023-02-22T01:02:00.822Z,7.20
2023-02-22T01:03:00.772Z,6.90
2023-02-22T01:04:00.764Z,7.30
2023-02-22T01:05:00.732Z,6.70
2023-02-22T01:06:00.716Z,6.80
2023-02-22T01:07:00.746Z,7.50
2023-02-22T01:08:00.725Z,7.30
2023-02-22T01:09:00.700Z,6.90
2023-02-22T01:10:00.683Z,7.30
2023-02-22T01:11:00.669Z,6.90
2023-02-22T01:12:00.644Z,7.60
2023-02-22T01:13:00.639Z,7.00
2023-02-22T01:14:00.685Z,7.40
2023-02-22T01:15:00.605Z,7.00
2023-02-22T01:16:00.602Z,7.90
2023-02-22T01:17:00.579Z,7.20
2023-02-22T01:18:00.581Z,7.60
2023-02-22T01:19:00.589Z,8.10
2023-02-22T01:20:00.567Z,7.90
2023-02-22T01:21:00.534Z,7.60
2023-02-22T01:22:00.525Z,7.70
2023-02-22T01:23:00.515Z,7.20
2023-02-22T01:24:00.492Z,7.80
2023-02-22T01:25:00.485Z,7.80
2023-02-22T01:26:00.493Z,8.00
2023-02-22T01:27:00.467Z,7.70
2023-02-22T01:28:00.448Z,7.50
2023-02-22T01:29:00.448Z,7.90
2023-02-22T01:30:00.681Z,7.70
2023-02-22T01:31:00.578Z,8.20
2023-02-22T01:32:00.454Z,7.60
2023-02-22T01:33:00.399Z,7.80
2023-02-22T01:34:00.362Z,8.10
2023-02-22T01:35:00.364Z,7.90
2023-02-22T01:36:00.349Z,8.20
2023-02-22T01:37:00.317Z,8.10
2023-02-22T01:38:00.377Z,7.90
2023-02-22T01:39:00.303Z,7.80
2023-02-22T01:40:00.296Z,7.40
2023-02-22T01:41:00.288Z,7.70
2023-02-22T01:42:00.253Z,8.10
2023-02-22T01:43:00.254Z,8.00
2023-02-22T01:44:00.320Z,8.30
2023-02-22T01:45:00.205Z,8.30
2023-02-22T01:46:00.258Z,8.60
2023-02-22T01:47:00.183Z,8.10
2023-02-22T01:48:00.190Z,8.30
2023-02-22T01:49:00.176Z,8.20
2023-02-22T01:50:00.185Z,8.20
2023-02-22T01:51:00.186Z,8.20
2023-02-22T01:52:00.156Z,8.00
2023-02-22T01:53:00.120Z,8.40
2023-02-22T01:54:00.141Z,8.20
2023-02-22T01:55:00.121Z,8.70
2023-02-22T01:56:00.150Z,8.10
2023-02-22T01:57:00.104Z,7.90
2023-02-22T01:58:00.079Z,8.90
2023-02-22T01:59:00.048Z,8.60
2023-02-22T02:00:00.082Z,8.60
2023-02-22T02:01:00.012Z,7.80
2023-02-22T02:02:00.049Z,8.50
2023-02-22T02:03:07.995Z,8.70
2023-02-22T02:04:00.073Z,8.80
2023-02-22T02:04:59.984Z,9.10
2023-02-22T02:05:59.954Z,8.80
2023-02-22T02:06:59.934Z,8.60
2023-02-22T02:07:59.942Z,8.90
2023-02-22T02:08:59.931Z,8.90
2023-02-22T02:09:59.924Z,8.20
2023-02-22T02:10:59.889Z,8.50
2023-02-22T02:11:59.928Z,8.00
2023-02-22T02:12:59.861Z,8.80
2023-02-22T02:13:59.849Z,8.20
2023-02-22T02:14:59.837Z,8.50
2023-02-22T02:15:59.844Z,8.30
2023-02-22T02:16:59.866Z,8.40
2023-02-22T02:17:59.799Z,8.60
2023-02-22T02:18:59.799Z,8.60
2023-02-22T02:19:59.766Z,8.50
2023-02-22T02:20:59.756Z,8.60
2023-02-22T02:21:59.746Z,8.40
2023-02-22T02:22:59.744Z,8.50
2023-02-22T02:23:59.729Z,8.10
2023-02-22T02:24:59.707Z,8.10
2023-02-22T02:25:59.695Z,8.30
2023-02-22T02:26:59.701Z,8.40
2023-02-22T02:27:59.662Z,8.40
2023-02-22T02:28:59.683Z,8.30
2023-02-22T02:29:59.651Z,8.20
2023-02-22T02:30:59.639Z,8.20
2023-02-22T02:31:59.768Z,8.20
2023-02-22T02:32:59.617Z,8.40
2023-02-22T02:33:59.583Z,8.50
2023-02-22T02:34:59.719Z,8.50
2023-02-22T02:35:59.579Z,8.80
2023-02-22T02:36:59.546Z,8.60
2023-02-22T02:37:59.564Z,9.00
2023-02-22T02:38:59.574Z,8.50
2023-02-22T02:39:59.532Z,8.80
2023-02-22T02:40:59.514Z,8.80
2023-02-22T02:41:59.493Z,8.10
2023-02-22T02:42:59.519Z,8.60
2023-02-22T02:43:59.464Z,8.50
2023-02-22T02:44:59.456Z,8.30
2023-02-22T02:45:59.465Z,9.30
2023-02-22T02:46:59.465Z,9.10
2023-02-22T02:47:59.436Z,9.10
2023-02-22T02:48:59.439Z,9.10
2023-02-22T02:49:59.401Z,8.90
2023-02-22T02:50:59.374Z,8.70
2023-02-22T02:51:59.364Z,8.90
2023-02-22T02:52:59.352Z,8.80
2023-02-22T02:53:59.371Z,9.00
2023-02-22T02:54:59.339Z,9.90
2023-02-22T02:55:59.310Z,9.90
2023-02-22T02:56:59.314Z,9.90
2023-02-22T02:57:59.314Z,10.00
2023-02-22T02:58:59.282Z,10.10
2023-02-22T02:59:59.288Z,10.70
2023-02-22T03:00:59.257Z,10.10
2023-02-22T03:01:59.238Z,10.60
2023-02-22T03:02:59.237Z,10.70
2023-02-22T03:03:59.210Z,10.90
2023-02-22T03:04:59.223Z,12.30
2023-02-22T03:05:59.188Z,11.10
2023-02-22T03:06:59.194Z,11.60
2023-02-22T03:07:59.194Z,11.40
2023-02-22T03:08:59.139Z,12.00
2023-02-22T03:09:59.135Z,12.70
2023-02-22T03:10:59.132Z,12.70
2023-02-22T03:11:59.126Z,12.30
2023-02-22T03:12:59.100Z,11.90
2023-02-22T03:13:59.098Z,11.80
2023-02-22T03:14:59.068Z,12.30
2023-02-22T03:15:59.185Z,12.40
2023-02-22T03:16:59.067Z,12.40
2023-02-22T03:17:59.053Z,12.60
2023-02-22T03:18:59.042Z,13.80
2023-02-22T03:19:59.016Z,13.70
2023-02-22T03:20:59.008Z,12.50
2023-02-22T03:21:59.024Z,13.10
2023-02-22T03:22:58.975Z,12.10
2023-02-22T03:23:59.017Z,13.50
2023-02-22T03:24:59.017Z,14.10
2023-02-22T03:25:58.954Z,14.60
2023-02-22T03:26:58.953Z,14.60
2023-02-22T03:27:58.922Z,15.70
2023-02-22T03:28:58.892Z,15.50
2023-02-22T03:29:58.935Z,15.10
2023-02-22T03:30:58.903Z,14.70
2023-02-22T03:31:58.883Z,15.20
2023-02-22T03:32:58.856Z,14.00
2023-02-22T03:33:58.842Z,15.20
2023-02-22T03:34:58.822Z,15.10
2023-02-22T03:35:58.828Z,15.10
2023-02-22T03:36:58.795Z,14.90
2023-02-22T03:37:58.793Z,16.40
2023-02-22T03:38:58.791Z,16.60
2023-02-22T03:39:58.770Z,15.10
2023-02-22T03:40:58.745Z,16.30
2023-02-22T03:41:58.774Z,15.60
2023-02-22T03:42:58.725Z,15.10
2023-02-22T03:43:58.700Z,12.70
2023-02-22T03:44:58.704Z,11.80
2023-02-22T03:45:58.705Z,11.90
2023-02-22T03:46:58.674Z,11.40
2023-02-22T03:47:58.690Z,12.00
2023-02-22T03:48:58.647Z,12.10
2023-02-22T03:49:58.641Z,12.50
2023-02-22T03:50:58.614Z,11.50
2023-02-22T03:51:58.619Z,11.80
2023-02-22T03:52:58.601Z,13.40
2023-02-22T03:53:58.615Z,12.80
2023-02-22T03:54:58.568Z,14.00
2023-02-22T03:55:58.558Z,14.00
2023-02-22T03:56:58.539Z,14.00
2023-02-22T03:57:58.528Z,14.00
2023-02-22T03:58:58.527Z,15.00
2023-02-22T03:59:58.591Z,15.20
2023-02-22T04:00:58.495Z,15.80
2023-02-22T04:01:58.478Z,15.10
2023-02-22T04:02:58.486Z,16.40
2023-02-22T04:03:58.459Z,16.20
2023-02-22T04:04:58.464Z,16.00
2023-02-22T04:05:58.447Z,16.70
2023-02-22T04:06:58.431Z,16.20
2023-02-22T04:07:58.407Z,16.70
2023-02-22T04:08:58.534Z,16.70
2023-02-22T04:09:58.380Z,17.20
2023-02-22T04:10:58.374Z,17.30
2023-02-22T04:11:58.371Z,17.60
2023-02-22T04:12:58.338Z,17.60
2023-02-22T04:13:58.407Z,17.20
2023-02-22T04:14:58.320Z,17.30
2023-02-22T04:15:58.310Z,17.50
2023-02-22T04:16:58.293Z,17.60
2023-02-22T04:17:58.314Z,19.00
2023-02-22T04:18:58.261Z,19.10
2023-02-22T04:19:58.265Z,19.40
2023-02-22T04:20:58.225Z,22.90
2023-02-22T04:21:58.222Z,19.50
2023-02-22T04:22:58.220Z,19.10
2023-02-22T04:23:58.224Z,19.00
2023-02-22T04:24:58.180Z,17.80
2023-02-22T04:25:58.159Z,19.70
2023-02-22T04:26:58.166Z,20.90
2023-02-22T04:27:58.141Z,21.80
2023-02-22T04:28:58.296Z,21.30
2023-02-22T04:29:58.145Z,18.60
2023-02-22T04:30:58.135Z,20.00
2023-02-22T04:31:58.104Z,20.00
2023-02-22T04:32:58.081Z,21.00
2023-02-22T04:33:58.081Z,20.00
2023-02-22T04:34:58.058Z,21.90
2023-02-22T04:35:58.102Z,23.30
2023-02-22T04:36:58.041Z,22.40
2023-02-22T04:37:58.019Z,21.90
2023-02-22T04:38:58.003Z,21.70
2023-02-22T04:39:57.999Z,21.70
2023-02-22T04:40:57.976Z,21.20
2023-02-22T04:41:58.001Z,22.00
2023-02-22T04:42:57.982Z,22.30
2023-02-22T04:43:57.968Z,22.30
2023-02-22T04:44:57.975Z,23.90
2023-02-22T04:45:57.925Z,23.30
2023-02-22T04:46:57.904Z,23.00
2023-02-22T04:47:57.934Z,23.60
2023-02-22T04:48:57.881Z,27.80
2023-02-22T04:49:57.877Z,25.90
2023-02-22T04:50:57.883Z,28.60
2023-02-22T04:51:57.857Z,28.00
2023-02-22T04:52:57.838Z,27.10
2023-02-22T04:53:57.848Z,28.50
2023-02-22T04:54:57.805Z,29.70
2023-02-22T04:55:57.794Z,28.90
2023-02-22T04:56:57.787Z,29.50
2023-02-22T04:57:57.794Z,30.60
2023-02-22T04:58:57.788Z,31.50
2023-02-22T04:59:57.774Z,34.10
2023-02-22T05:00:57.733Z,35.00
2023-02-22T05:01:57.712Z,34.10
2023-02-22T05:02:57.756Z,32.30
2023-02-22T05:03:57.701Z,33.40
2023-02-22T05:04:57.740Z,31.10
2023-02-22T05:05:57.694Z,28.40
2023-02-22T05:06:57.652Z,28.30
2023-02-22T05:07:57.646Z,29.50
2023-02-22T05:08:57.636Z,30.40
2023-02-22T05:09:57.619Z,42.80
2023-02-22T05:10:57.619Z,93.70
2023-02-22T05:11:57.630Z,64.50
2023-02-22T05:12:57.571Z,34.30
2023-02-22T05:13:57.569Z,30.10
2023-02-22T05:14:57.575Z,40.60
2023-02-22T05:15:57.578Z,29.30
2023-02-22T05:16:57.522Z,26.80
2023-02-22T05:17:57.544Z,28.00
2023-02-22T05:18:57.509Z,26.90
2023-02-22T05:19:57.512Z,33.80
2023-02-22T05:20:57.477Z,25.40
2023-02-22T05:21:57.483Z,28.90
2023-02-22T05:22:57.452Z,28.20
2023-02-22T05:23:57.503Z,26.40
2023-02-22T05:24:57.457Z,26.50
2023-02-22T05:25:57.418Z,23.40
2023-02-22T05:26:57.401Z,22.20
2023-02-22T05:27:57.440Z,26.60
2023-02-22T05:28:57.390Z,31.50
2023-02-22T05:29:57.410Z,33.80
2023-02-22T05:30:57.421Z,41.40
2023-02-22T05:31:57.419Z,35.90
2023-02-22T05:32:57.344Z,36.40
2023-02-22T05:33:57.315Z,37.60
2023-02-22T05:34:57.333Z,40.10
2023-02-22T05:35:57.341Z,41.50
2023-02-22T05:36:57.273Z,32.50
2023-02-22T05:37:57.272Z,31.70
2023-02-22T05:38:57.256Z,30.50
2023-02-22T05:39:57.245Z,26.30
2023-02-22T05:40:57.238Z,23.50
2023-02-22T05:41:57.292Z,19.30
2023-02-22T05:42:57.228Z,21.00
2023-02-22T05:43:57.210Z,22.30
2023-02-22T05:44:57.180Z,23.90
2023-02-22T05:45:57.195Z,24.40
2023-02-22T05:46:57.163Z,22.80
2023-02-22T05:47:57.205Z,22.70
2023-02-22T05:48:57.137Z,22.50
2023-02-22T05:49:57.133Z,21.20
2023-02-22T05:50:57.119Z,19.50
2023-02-22T05:51:57.118Z,19.80
2023-02-22T05:52:57.110Z,19.10
2023-02-22T05:53:57.110Z,19.40
2023-02-22T05:54:57.056Z,20.00
2023-02-22T05:55:57.077Z,20.60
2023-02-22T05:56:57.034Z,19.80
2023-02-22T05:57:57.010Z,20.90
2023-02-22T05:58:57.011Z,22.60
2023-02-22T05:59:57.026Z,22.40
2023-02-22T06:00:56.993Z,19.50
2023-02-22T06:01:57.027Z,19.10
2023-02-22T06:02:56.959Z,19.20
2023-02-22T06:03:56.965Z,19.30
2023-02-22T06:04:56.929Z,19.20
2023-02-22T06:05:56.954Z,22.10
2023-02-22T06:06:56.930Z,25.90
2023-02-22T06:07:56.902Z,18.50
2023-02-22T06:08:56.866Z,17.60
2023-02-22T06:09:56.888Z,17.80
2023-02-22T06:10:56.874Z,18.00
2023-02-22T06:11:56.869Z,20.30
2023-02-22T06:12:56.889Z,18.60
2023-02-22T06:13:56.819Z,23.00
2023-02-22T06:14:56.828Z,26.10
2023-02-22T06:15:56.797Z,18.60
2023-02-22T06:16:56.775Z,16.40
2023-02-22T06:17:56.807Z,16.70
2023-02-22T06:18:56.757Z,15.90
2023-02-22T06:19:56.735Z,15.60
2023-02-22T06:20:56.738Z,14.70
2023-02-22T06:21:56.712Z,15.20
2023-02-22T06:22:56.732Z,16.10
2023-02-22T06:23:56.713Z,19.10
2023-02-22T06:24:56.687Z,15.30
2023-02-22T06:25:56.700Z,15.10
2023-02-22T06:26:56.677Z,15.50
2023-02-22T06:27:56.640Z,15.70
2023-02-22T06:28:56.624Z,15.40
2023-02-22T06:29:56.643Z,18.50
2023-02-22T06:30:56.588Z,19.80
2023-02-22T06:31:56.661Z,21.20
2023-02-22T06:32:56.573Z,16.90
2023-02-22T06:33:57.565Z,11.90
2023-02-22T06:34:56.568Z,12.40
2023-02-22T06:35:56.555Z,12.90
2023-02-22T06:36:58.055Z,12.80
2023-02-22T06:37:56.521Z,12.30
2023-02-22T06:38:56.497Z,11.30
2023-02-22T06:39:57.184Z,11.20
2023-02-22T06:40:56.505Z,10.20
2023-02-22T06:41:56.530Z,10.20
2023-02-22T06:42:56.468Z,9.50
2023-02-22T06:43:56.449Z,10.60
2023-02-22T06:44:56.433Z,10.90
2023-02-22T06:45:56.449Z,10.00
2023-02-22T06:46:56.406Z,9.70
2023-02-22T06:47:56.407Z,10.00
2023-02-22T06:48:56.377Z,9.60
2023-02-22T06:49:56.350Z,10.40
2023-02-22T06:50:56.343Z,9.70
2023-02-22T06:51:56.336Z,10.30
2023-02-22T06:52:56.316Z,9.40
2023-02-22T06:53:56.370Z,9.20
2023-02-22T06:54:56.302Z,9.40
2023-02-22T06:55:56.313Z,10.00
2023-02-22T06:56:56.273Z,10.30
2023-02-22T06:57:56.259Z,9.50
2023-02-22T06:58:56.239Z,9.20
2023-02-22T06:59:56.287Z,9.70
2023-02-22T07:00:56.257Z,9.60
2023-02-22T07:01:56.192Z,9.70
2023-02-22T07:02:56.212Z,10.30
2023-02-22T07:03:56.185Z,9.80
2023-02-22T07:04:56.164Z,9.80
2023-02-22T07:05:56.167Z,10.50
2023-02-22T07:06:56.134Z,10.30
2023-02-22T07:07:56.143Z,10.10
2023-02-22T07:08:56.115Z,10.20
2023-02-22T07:09:56.103Z,9.90
2023-02-22T07:10:56.085Z,10.00
2023-02-22T07:11:56.107Z,9.70
2023-02-22T07:12:56.071Z,10.40
2023-02-22T07:13:56.054Z,10.10
2023-02-22T07:14:56.044Z,9.70
2023-02-22T07:15:56.070Z,9.70
2023-02-22T07:16:56.026Z,9.80
2023-02-22T07:17:56.042Z,10.70
2023-02-22T07:18:56.002Z,10.20
2023-02-22T07:19:55.976Z,11.80
2023-02-22T07:20:55.957Z,11.70
2023-02-22T07:21:55.959Z,13.50
2023-02-22T07:22:55.966Z,13.30
2023-02-22T07:23:55.963Z,13.70
2023-02-22T07:24:55.905Z,13.30
2023-02-22T07:25:55.897Z,13.20
2023-02-22T07:26:55.903Z,13.30
2023-02-22T07:27:55.864Z,12.80
2023-02-22T07:28:55.861Z,12.10
2023-02-22T07:29:55.917Z,11.40
2023-02-22T07:30:55.840Z,11.30
2023-02-22T07:31:55.842Z,11.10
2023-02-22T07:32:55.885Z,12.10
2023-02-22T07:33:55.797Z,12.30
2023-02-22T07:34:55.793Z,11.80
2023-02-22T07:35:55.825Z,12.90
2023-02-22T07:36:55.749Z,13.20
2023-02-22T07:37:56.152Z,12.30
2023-02-22T07:38:55.748Z,13.10
2023-02-22T07:39:55.718Z,12.70
2023-02-22T07:40:55.718Z,12.60
2023-02-22T07:41:55.723Z,12.50
2023-02-22T07:42:55.702Z,13.40
2023-02-22T07:43:55.677Z,13.00
2023-02-22T07:44:55.664Z,13.20
2023-02-22T07:45:55.965Z,12.90
2023-02-22T07:46:55.903Z,13.70
2023-02-22T07:47:57.264Z,13.30
2023-02-22T07:48:55.619Z,13.50
2023-02-22T07:49:55.592Z,13.20
2023-02-22T07:50:55.569Z,13.70
2023-02-22T07:51:55.564Z,13.90
2023-02-22T07:52:55.552Z,13.30
2023-02-22T07:53:55.591Z,13.50
2023-02-22T07:54:55.533Z,13.70
2023-02-22T07:55:55.500Z,13.30
2023-02-22T07:56:55.513Z,12.70
2023-02-22T07:57:55.488Z,12.80
2023-02-22T07:58:55.472Z,13.20
2023-02-22T07:59:55.496Z,12.70
2023-02-22T08:00:55.483Z,12.80
2023-02-22T08:01:55.435Z,12.40
2023-02-22T08:02:55.417Z,12.10
2023-02-22T08:03:55.432Z,12.40
2023-02-22T08:04:55.404Z,12.50
2023-02-22T08:05:55.405Z,11.50
2023-02-22T08:06:55.374Z,11.80
2023-02-22T08:07:55.364Z,12.20
2023-02-22T08:08:55.350Z,12.70
2023-02-22T08:09:55.334Z,12.70
2023-02-22T08:10:55.318Z,12.60
2023-02-22T08:11:55.324Z,13.70
2023-02-22T08:12:55.292Z,12.80
2023-02-22T08:13:55.269Z,13.30
2023-02-22T08:14:55.271Z,13.20
2023-02-22T08:15:55.264Z,13.10
2023-02-22T08:16:55.246Z,13.80
2023-02-22T08:17:55.267Z,13.60
2023-02-22T08:18:55.222Z,14.30
2023-02-22T08:19:55.195Z,14.40
2023-02-22T08:20:55.208Z,14.40
2023-02-22T08:21:55.168Z,14.70
2023-02-22T08:22:55.161Z,15.40
2023-02-22T08:23:55.181Z,14.70
2023-02-22T08:24:55.174Z,14.50
2023-02-22T08:25:55.139Z,14.30
2023-02-22T08:26:55.134Z,13.60
2023-02-22T08:27:55.099Z,13.60
2023-02-22T08:28:55.092Z,13.80
2023-02-22T08:29:55.102Z,13.40
2023-02-22T08:30:55.093Z,13.70
2023-02-22T08:31:55.172Z,13.50
2023-02-22T08:32:55.096Z,13.70
2023-02-22T08:33:55.012Z,13.70
2023-02-22T08:34:55.019Z,14.30
2023-02-22T08:35:55.032Z,14.50
2023-02-22T08:36:54.981Z,14.00
2023-02-22T08:37:54.975Z,14.20
2023-02-22T08:38:54.951Z,14.40
2023-02-22T08:39:54.985Z,14.80
2023-02-22T08:40:54.933Z,14.00
2023-02-22T08:41:54.969Z,14.10
2023-02-22T08:42:54.920Z,14.60
2023-02-22T08:43:54.882Z,13.70
2023-02-22T08:44:54.867Z,14.00
2023-02-22T08:45:57.313Z,13.50
2023-02-22T08:46:54.961Z,13.80
2023-02-22T08:47:54.927Z,13.30
2023-02-22T08:48:54.826Z,13.40
2023-02-22T08:49:54.796Z,13.30
2023-02-22T08:50:54.796Z,13.50
2023-02-22T08:51:54.833Z,14.00
2023-02-22T08:52:54.813Z,13.20
2023-02-22T08:53:54.791Z,12.10
2023-02-22T08:54:54.747Z,12.90
2023-02-22T08:55:54.729Z,12.10
2023-02-22T08:56:54.751Z,11.30
2023-02-22T08:57:54.702Z,12.40
2023-02-22T08:58:54.706Z,12.10
2023-02-22T08:59:54.696Z,12.00
2023-02-22T09:00:54.669Z,12.10
2023-02-22T09:01:54.761Z,12.10
2023-02-22T09:02:54.633Z,11.60
2023-02-22T09:03:54.650Z,12.30
2023-02-22T09:04:54.601Z,12.50
2023-02-22T09:05:54.691Z,12.20
2023-02-22T09:06:54.576Z,12.40
2023-02-22T09:07:54.585Z,12.00
2023-02-22T09:08:54.582Z,11.60
2023-02-22T09:09:54.573Z,12.10
2023-02-22T09:10:54.532Z,12.10
2023-02-22T09:11:54.560Z,12.10
2023-02-22T09:12:54.513Z,12.00
2023-02-22T09:13:54.487Z,11.30
2023-02-22T09:14:54.485Z,10.90
2023-02-22T09:15:54.475Z,11.40
2023-02-22T09:16:54.615Z,11.80
2023-02-22T09:17:54.501Z,11.50
2023-02-22T09:18:54.439Z,12.10
2023-02-22T09:19:54.417Z,11.30
2023-02-22T09:20:54.418Z,11.10
2023-02-22T09:21:54.402Z,12.30
2023-02-22T09:22:54.376Z,11.90
2023-02-22T09:23:54.388Z,12.00
2023-02-22T09:24:54.960Z,12.00
2023-02-22T09:25:54.379Z,11.90
2023-02-22T09:26:54.332Z,12.10
2023-02-22T09:27:54.322Z,12.30
2023-02-22T09:28:54.294Z,12.10
2023-02-22T09:29:54.325Z,12.00
2023-02-22T09:30:54.382Z,12.30
2023-02-22T09:31:54.410Z,12.10
2023-02-22T09:32:54.404Z,12.50
2023-02-22T09:33:54.227Z,12.50
2023-02-22T09:34:54.211Z,12.10
2023-02-22T09:35:54.232Z,11.80
2023-02-22T09:36:54.198Z,11.80
2023-02-22T09:37:54.199Z,13.10
2023-02-22T09:38:54.182Z,12.50
2023-02-22T09:39:54.201Z,13.00
2023-02-22T09:40:54.147Z,13.10
2023-02-22T09:41:54.178Z,12.70
2023-02-22T09:42:54.118Z,12.50
2023-02-22T09:43:54.102Z,12.80
2023-02-22T09:44:54.091Z,12.70
2023-02-22T09:45:54.211Z,12.00
2023-02-22T09:46:54.082Z,12.70
2023-02-22T09:47:56.394Z,11.80
2023-02-22T09:48:54.069Z,12.00
2023-02-22T09:49:54.039Z,11.90
2023-02-22T09:50:54.025Z,12.70
2023-02-22T09:51:54.001Z,12.30
2023-02-22T09:52:53.998Z,12.50
2023-02-22T09:53:54.026Z,12.90
2023-02-22T09:54:53.956Z,13.00
2023-02-22T09:55:53.946Z,13.10
2023-02-22T09:56:53.924Z,12.50
2023-02-22T09:57:53.916Z,12.70
2023-02-22T09:58:53.899Z,12.40
2023-02-22T09:59:53.915Z,13.00
2023-02-22T10:00:53.926Z,12.80
2023-02-22T10:01:53.871Z,12.80
2023-02-22T10:02:53.858Z,13.40
2023-02-22T10:03:53.885Z,13.10
2023-02-22T10:04:53.873Z,13.50
2023-02-22T10:05:53.873Z,13.30
2023-02-22T10:06:53.809Z,13.60
2023-02-22T10:07:53.800Z,13.80
2023-02-22T10:08:53.774Z,12.80
2023-02-22T10:09:53.812Z,12.60
2023-02-22T10:10:53.812Z,13.70
2023-02-22T10:11:53.804Z,13.50
2023-02-22T10:12:54.247Z,13.80
2023-02-22T10:13:53.719Z,13.90
2023-02-22T10:14:53.708Z,12.90
2023-02-22T10:15:53.699Z,13.40
2023-02-22T10:16:53.703Z,13.20
2023-02-22T10:17:53.724Z,13.30
2023-02-22T10:18:53.654Z,15.20
2023-02-22T10:19:54.843Z,15.30
2023-02-22T10:20:53.626Z,14.60
2023-02-22T10:21:53.603Z,15.80
2023-02-22T10:22:53.596Z,15.70
2023-02-22T10:23:53.630Z,16.40
2023-02-22T10:24:53.582Z,15.80
2023-02-22T10:25:53.575Z,15.60
2023-02-22T10:26:53.545Z,16.20
2023-02-22T10:27:53.848Z,15.30
2023-02-22T10:28:53.533Z,15.30
2023-02-22T10:29:53.543Z,14.80
2023-02-22T10:30:53.607Z,15.00
2023-02-22T10:31:53.539Z,16.40
2023-02-22T10:32:53.485Z,16.20
2023-02-22T10:33:53.470Z,15.60
2023-02-22T10:34:53.447Z,16.20
2023-02-22T10:35:53.465Z,15.90
2023-02-22T10:36:53.421Z,17.10
2023-02-22T10:37:53.415Z,16.10
2023-02-22T10:38:53.394Z,15.30
2023-02-22T10:39:53.488Z,16.50
2023-02-22T10:40:53.374Z,16.10
2023-02-22T10:41:53.389Z,17.30
2023-02-22T10:42:53.340Z,17.10
2023-02-22T10:43:53.359Z,18.20
2023-02-22T10:44:53.318Z,17.20
2023-02-22T10:45:53.335Z,17.10
2023-02-22T10:46:53.347Z,16.10
2023-02-22T10:47:53.327Z,15.90
2023-02-22T10:48:53.346Z,17.50
2023-02-22T10:49:53.392Z,16.90
2023-02-22T10:50:53.259Z,16.20
2023-02-22T10:51:53.232Z,15.90
2023-02-22T10:52:53.222Z,16.30
2023-02-22T10:53:53.238Z,15.90
2023-02-22T10:54:55.488Z,16.10
2023-02-22T10:55:53.254Z,16.20
2023-02-22T10:56:53.164Z,16.20
2023-02-22T10:57:53.156Z,16.00
2023-02-22T10:58:53.152Z,16.00
2023-02-22T10:59:53.169Z,15.30
2023-02-22T11:00:53.151Z,14.40
2023-02-22T11:01:53.143Z,15.10
2023-02-22T11:02:53.102Z,14.50
2023-02-22T11:03:53.088Z,15.60
2023-02-22T11:04:53.117Z,15.60
2023-02-22T11:05:53.090Z,15.60
2023-02-22T11:06:53.057Z,15.30
2023-02-22T11:07:53.070Z,14.60
2023-02-22T11:08:53.040Z,14.40
2023-02-22T11:09:53.026Z,14.20
2023-02-22T11:10:53.016Z,14.40
2023-02-22T11:11:53.029Z,15.10
2023-02-22T11:12:52.992Z,14.80
2023-02-22T11:13:52.964Z,15.00
2023-02-22T11:14:52.966Z,15.00
2023-02-22T11:15:52.955Z,14.50
2023-02-22T11:16:52.989Z,14.00
2023-02-22T11:17:52.971Z,14.20
2023-02-22T11:18:52.907Z,14.60
2023-02-22T11:19:52.939Z,13.50
2023-02-22T11:20:52.867Z,13.60
2023-02-22T11:21:52.976Z,13.50
2023-02-22T11:22:52.841Z,14.00
2023-02-22T11:23:52.872Z,13.70
2023-02-22T11:24:52.821Z,14.30
2023-02-22T11:25:52.826Z,14.70
2023-02-22T11:26:52.796Z,15.00
2023-02-22T11:27:52.787Z,14.90
2023-02-22T11:28:52.804Z,15.80
2023-02-22T11:29:52.811Z,15.10
2023-02-22T11:30:52.831Z,15.90
2023-02-22T11:31:52.856Z,13.70
2023-02-22T11:32:52.732Z,14.20
2023-02-22T11:33:52.724Z,14.40
2023-02-22T11:35:00.210Z,14.50
2023-02-22T11:35:52.739Z,15.50
2023-02-22T11:36:52.698Z,15.40
2023-02-22T11:37:52.690Z,14.50
2023-02-22T11:38:52.653Z,13.80
2023-02-22T11:39:52.656Z,13.90
2023-02-22T11:40:52.659Z,14.40
2023-02-22T11:41:52.678Z,13.40
2023-02-22T11:42:52.594Z,15.50
2023-02-22T11:43:52.584Z,15.10
2023-02-22T11:44:52.565Z,14.30
2023-02-22T11:45:58.932Z,15.00
2023-02-22T11:46:52.590Z,15.00
2023-02-22T11:47:52.639Z,14.40
2023-02-22T11:48:52.546Z,15.30
2023-02-22T11:49:52.503Z,14.60
2023-02-22T11:50:52.516Z,14.60
2023-02-22T11:51:52.493Z,14.30
2023-02-22T11:52:52.475Z,14.70
2023-02-22T11:53:52.517Z,13.90
2023-02-22T11:54:52.457Z,14.90
2023-02-22T11:55:52.450Z,14.40
2023-02-22T11:56:52.429Z,13.90
2023-02-22T11:57:52.436Z,14.50
2023-02-22T11:58:52.417Z,14.00
2023-02-22T11:59:52.413Z,13.70
2023-02-22T12:00:52.392Z,13.60
2023-02-22T12:01:52.382Z,13.80
2023-02-22T12:02:57.410Z,13.60
2023-02-22T12:03:52.397Z,14.00
2023-02-22T12:04:52.430Z,13.70
2023-02-22T12:05:52.340Z,13.80
2023-02-22T12:06:52.332Z,14.90
2023-02-22T12:07:52.290Z,13.60
2023-02-22T12:08:54.146Z,14.10
2023-02-22T12:09:52.269Z,14.00
2023-02-22T12:10:52.268Z,13.70
2023-02-22T12:11:52.293Z,14.40
2023-02-22T12:12:52.248Z,14.00
2023-02-22T12:13:52.203Z,13.30
2023-02-22T12:14:54.950Z,13.80
2023-02-22T12:15:52.204Z,14.10
2023-02-22T12:16:52.196Z,14.00
2023-02-22T12:18:00.021Z,14.60
2023-02-22T12:18:52.147Z,14.80
2023-02-22T12:19:52.195Z,13.80
2023-02-22T12:20:52.176Z,14.50
2023-02-22T12:21:52.140Z,14.60
2023-02-22T12:22:52.119Z,14.80
2023-02-22T12:23:52.203Z,13.60
2023-02-22T12:25:00.738Z,14.10
2023-02-22T12:25:52.096Z,14.40
2023-02-22T12:26:52.064Z,13.90
2023-02-22T12:27:52.062Z,14.70
2023-02-22T12:28:52.206Z,15.30
2023-02-22T12:29:52.043Z,14.30
2023-02-22T12:30:52.107Z,14.30
2023-02-22T12:31:52.030Z,13.70
2023-02-22T12:32:52.082Z,13.50
2023-02-22T12:33:52.037Z,14.00
2023-02-22T12:34:51.946Z,13.60
2023-02-22T12:35:52.019Z,13.70
2023-02-22T12:36:51.929Z,14.40
2023-02-22T12:37:52.000Z,13.90
2023-02-22T12:38:51.910Z,13.70
2023-02-22T12:39:53.799Z,13.40
2023-02-22T12:40:51.881Z,13.10
2023-02-22T12:41:51.892Z,13.50
2023-02-22T12:42:51.882Z,13.10
2023-02-22T12:43:51.844Z,13.70
2023-02-22T12:44:51.828Z,13.40
2023-02-22T12:45:51.804Z,13.40
2023-02-22T12:46:51.802Z,13.00
2023-02-22T12:47:51.816Z,13.50
2023-02-22T12:48:51.786Z,13.10
2023-02-22T12:49:51.771Z,12.40
2023-02-22T12:50:51.747Z,12.50
2023-02-22T12:51:51.849Z,12.20
2023-02-22T12:52:51.844Z,12.80
2023-02-22T12:53:51.768Z,12.40
2023-02-22T12:54:51.709Z,12.30
2023-02-22T12:55:51.724Z,12.60
2023-02-22T12:56:51.700Z,12.60
2023-02-22T12:57:51.690Z,13.00
2023-02-22T12:58:51.782Z,12.00